createdAt,value
2022-10-24T00:01:44.309Z,14.48
2022-10-24T00:04:24.075Z,14.44
2022-10-24T00:07:06.610Z,14.45
2022-10-24T00:09:47.343Z,14.41
2022-10-24T00:12:26.802Z,14.39
2022-10-24T00:15:07.215Z,14.37
2022-10-24T00:17:46.303Z,14.41
2022-10-24T00:20:28.205Z,14.34
2022-10-24T00:23:07.544Z,14.32
2022-10-24T00:25:47.343Z,14.30
2022-10-24T00:28:29.324Z,14.18
2022-10-24T00:31:08.768Z,14.18
2022-10-24T00:33:48.579Z,14.13
2022-10-24T00:36:30.262Z,14.14
2022-10-24T00:39:09.587Z,14.10
2022-10-24T00:42:08.642Z,14.03
2022-10-24T00:44:50.210Z,13.97
2022-10-24T00:47:29.870Z,13.90
2022-10-24T00:50:12.863Z,13.85
2022-10-24T00:52:52.678Z,13.75
2022-10-24T00:55:34.482Z,13.64
2022-10-24T00:58:13.866Z,13.65
2022-10-24T01:00:56.136Z,13.57
2022-10-24T01:03:35.260Z,13.48
2022-10-24T01:06:18.412Z,13.40
2022-10-24T01:09:00.430Z,13.36
2022-10-24T01:11:54.591Z,13.22
2022-10-24T01:14:40.182Z,13.23
2022-10-24T01:17:21.540Z,13.15
2022-10-24T01:20:23.258Z,13.06
2022-10-24T01:23:39.758Z,12.99
2022-10-24T01:26:24.243Z,12.97
2022-10-24T01:29:06.815Z,13.04
2022-10-24T01:31:46.871Z,13.10
2022-10-24T01:34:27.659Z,13.13
2022-10-24T01:37:08.887Z,13.24
2022-10-24T01:39:49.775Z,13.38
2022-10-24T01:42:28.864Z,13.43
2022-10-24T01:45:09.700Z,13.47
2022-10-24T01:47:49.566Z,13.53
2022-10-24T01:50:28.364Z,13.60
2022-10-24T01:53:10.162Z,13.63
2022-10-24T01:55:49.962Z,13.63
2022-10-24T01:58:30.566Z,13.67
2022-10-24T02:01:11.316Z,13.72
2022-10-24T02:03:51.274Z,13.72
2022-10-24T02:06:30.859Z,13.76
2022-10-24T02:09:10.929Z,13.82
2022-10-24T02:11:50.430Z,13.85
2022-10-24T02:14:31.771Z,13.84
2022-10-24T02:17:53.633Z,13.87
2022-10-24T02:20:35.007Z,13.88
2022-10-24T02:23:16.484Z,13.86
2022-10-24T02:25:56.221Z,13.85
2022-10-24T02:28:36.225Z,13.85
2022-10-24T02:31:17.340Z,13.84
2022-10-24T02:33:57.084Z,13.80
2022-10-24T02:36:38.924Z,13.78
2022-10-24T02:39:18.291Z,13.78
2022-10-24T02:41:57.297Z,13.77
2022-10-24T02:44:36.256Z,13.73
2022-10-24T02:47:18.105Z,13.74
2022-10-24T02:49:57.473Z,13.70
2022-10-24T02:52:39.299Z,13.69
2022-10-24T02:55:18.671Z,13.66
2022-10-24T02:57:58.505Z,13.63
2022-10-24T03:00:39.554Z,13.64
2022-10-24T03:03:19.819Z,13.60
2022-10-24T03:06:01.563Z,13.56
2022-10-24T03:08:40.197Z,13.53
2022-10-24T03:11:19.140Z,13.48
2022-10-24T03:13:59.002Z,13.46
2022-10-24T03:16:38.750Z,13.39
2022-10-24T03:19:18.539Z,13.36
2022-10-24T03:22:13.002Z,13.30
2022-10-24T03:24:55.625Z,13.32
2022-10-24T03:27:48.399Z,13.30
2022-10-24T03:30:29.706Z,13.27
2022-10-24T03:33:08.370Z,13.22
2022-10-24T03:35:47.381Z,13.09
2022-10-24T03:38:27.221Z,13.09
2022-10-24T03:41:07.148Z,13.11
2022-10-24T03:43:47.984Z,13.08
2022-10-24T03:46:26.569Z,13.05
2022-10-24T03:49:08.401Z,13.01
2022-10-24T03:51:47.807Z,13.01
2022-10-24T03:54:29.657Z,12.98
2022-10-24T03:57:09.865Z,12.96
2022-10-24T03:59:48.850Z,12.87
2022-10-24T04:02:28.657Z,12.85
2022-10-24T04:05:10.641Z,12.92
2022-10-24T04:07:49.853Z,12.90
2022-10-24T04:10:29.845Z,12.96
2022-10-24T04:13:09.466Z,12.96
2022-10-24T04:15:48.461Z,13.08
2022-10-24T04:18:29.514Z,13.07
2022-10-24T04:21:08.876Z,13.07
2022-10-24T04:23:48.709Z,13.05
2022-10-24T04:26:28.584Z,12.98
2022-10-24T04:29:29.559Z,12.96
2022-10-24T04:32:08.964Z,12.92
2022-10-24T04:34:48.850Z,12.86
2022-10-24T04:37:30.550Z,12.81
2022-10-24T04:40:10.668Z,12.73
2022-10-24T04:42:48.957Z,12.73
2022-10-24T04:45:28.003Z,12.71
2022-10-24T04:48:07.950Z,12.62
2022-10-24T04:50:47.931Z,12.59
2022-10-24T04:53:26.663Z,12.53
2022-10-24T04:56:08.161Z,12.50
2022-10-24T04:58:47.061Z,12.50
2022-10-24T05:01:26.963Z,12.42
2022-10-24T05:04:06.690Z,12.38
2022-10-24T05:06:47.015Z,12.34
2022-10-24T05:09:26.227Z,12.29
2022-10-24T05:12:07.406Z,12.26
2022-10-24T05:14:47.956Z,12.23
2022-10-24T05:17:27.324Z,12.17
2022-10-24T05:20:08.159Z,12.13
2022-10-24T05:22:48.237Z,12.07
2022-10-24T05:25:30.353Z,12.06
2022-10-24T05:28:09.718Z,12.06
2022-10-24T05:30:49.644Z,12.04
2022-10-24T05:33:29.366Z,12.02
2022-10-24T05:36:09.566Z,11.99
2022-10-24T05:38:48.093Z,11.99
2022-10-24T05:42:11.799Z,12.26
2022-10-24T05:44:53.543Z,12.18
2022-10-24T05:47:36.961Z,12.12
2022-10-24T05:50:19.945Z,12.08
2022-10-24T05:53:00.879Z,12.04
2022-10-24T05:55:40.651Z,12.14
2022-10-24T05:58:21.045Z,12.09
2022-10-24T06:01:04.019Z,12.08
2022-10-24T06:03:46.949Z,12.05
2022-10-24T06:06:30.929Z,12.04
2022-10-24T06:09:11.418Z,12.02
2022-10-24T06:11:54.301Z,12.01
2022-10-24T06:14:37.376Z,12.14
2022-10-24T06:17:18.304Z,12.37
2022-10-24T06:19:56.198Z,12.61
2022-10-24T06:22:36.329Z,12.75
2022-10-24T06:25:17.407Z,12.86
2022-10-24T06:28:01.700Z,13.01
2022-10-24T06:30:44.199Z,12.98
2022-10-24T06:33:25.209Z,13.06
2022-10-24T06:36:05.637Z,13.00
2022-10-24T06:38:46.512Z,13.20
2022-10-24T06:41:27.784Z,13.33
2022-10-24T06:44:10.863Z,13.42
2022-10-24T06:46:54.247Z,13.54
2022-10-24T06:49:37.362Z,13.61
2022-10-24T06:52:18.304Z,13.64
2022-10-24T06:54:59.594Z,13.66
2022-10-24T06:57:39.440Z,13.82
2022-10-24T07:00:19.673Z,13.82
2022-10-24T07:03:03.908Z,13.89
2022-10-24T07:05:48.414Z,14.00
2022-10-24T07:08:31.395Z,14.04
2022-10-24T07:11:13.059Z,14.11
2022-10-24T07:13:58.293Z,14.13
2022-10-24T07:16:45.316Z,14.16
2022-10-24T07:19:33.885Z,14.22
2022-10-24T07:22:19.905Z,14.35
2022-10-24T07:25:05.789Z,14.39
2022-10-24T07:27:56.785Z,14.50
2022-10-24T07:30:36.895Z,14.63
2022-10-24T07:33:28.563Z,14.68
2022-10-24T07:36:10.068Z,14.77
2022-10-24T07:38:51.745Z,14.87
2022-10-24T07:41:33.088Z,14.97
2022-10-24T07:44:14.197Z,15.02
2022-10-24T07:46:55.502Z,15.08
2022-10-24T07:49:35.725Z,15.16
2022-10-24T07:52:17.392Z,15.23
2022-10-24T07:54:58.976Z,15.35
2022-10-24T07:57:45.635Z,15.45
2022-10-24T08:00:26.157Z,15.56
2022-10-24T08:03:07.225Z,15.59
2022-10-24T08:05:48.545Z,15.69
2022-10-24T08:08:36.416Z,15.74
2022-10-24T08:11:18.985Z,15.79
2022-10-24T08:14:02.203Z,15.86
2022-10-24T08:16:43.071Z,15.89
2022-10-24T08:19:26.645Z,15.93
2022-10-24T08:22:08.693Z,15.98
2022-10-24T08:24:49.594Z,16.18
2022-10-24T08:27:31.472Z,16.23
2022-10-24T08:30:13.120Z,16.38
2022-10-24T08:32:54.663Z,16.45
2022-10-24T08:35:35.254Z,16.50
2022-10-24T08:38:15.169Z,16.51
2022-10-24T08:40:56.625Z,16.56
2022-10-24T08:43:37.941Z,16.61
2022-10-24T08:46:24.854Z,16.67
2022-10-24T08:49:06.272Z,16.72
2022-10-24T08:51:48.914Z,16.72
2022-10-24T08:54:31.619Z,16.80
2022-10-24T08:57:16.374Z,16.82
2022-10-24T08:59:58.292Z,16.85
2022-10-24T09:02:41.009Z,16.92
2022-10-24T09:05:24.296Z,17.00
2022-10-24T09:08:21.728Z,17.07
2022-10-24T09:11:06.544Z,17.14
2022-10-24T09:13:47.006Z,17.13
2022-10-24T09:16:28.542Z,17.19
2022-10-24T09:19:10.427Z,17.26
2022-10-24T09:21:51.147Z,17.35
2022-10-24T09:24:32.134Z,17.47
2022-10-24T09:27:13.403Z,17.58
2022-10-24T09:30:06.455Z,17.68
2022-10-24T09:32:47.217Z,17.79
2022-10-24T09:35:41.860Z,17.90
2022-10-24T09:38:27.461Z,18.03
2022-10-24T09:41:08.229Z,18.08
2022-10-24T09:43:53.205Z,18.20
2022-10-24T09:46:36.578Z,18.24
2022-10-24T09:49:20.245Z,18.39
2022-10-24T09:52:03.328Z,18.50
2022-10-24T09:55:28.543Z,18.61
2022-10-24T09:58:15.703Z,18.78
2022-10-24T10:00:59.718Z,18.97
2022-10-24T10:03:38.566Z,19.19
2022-10-24T10:06:21.150Z,19.39
2022-10-24T10:08:59.986Z,19.51
2022-10-24T10:11:40.770Z,19.78
2022-10-24T10:14:27.345Z,19.92
2022-10-24T10:17:07.497Z,19.98
2022-10-24T10:19:47.994Z,19.81
2022-10-24T10:22:29.715Z,19.86
2022-10-24T10:27:59.809Z,19.86
2022-10-24T10:30:42.469Z,19.73
2022-10-24T10:33:24.087Z,19.72
2022-10-24T10:36:08.795Z,19.76
2022-10-24T10:38:51.502Z,19.75
2022-10-24T10:41:34.070Z,19.81
2022-10-24T10:44:20.512Z,19.94
2022-10-24T10:47:03.679Z,19.84
2022-10-24T10:49:44.041Z,19.69
2022-10-24T10:52:25.634Z,19.60
2022-10-24T10:55:13.001Z,19.70
2022-10-24T10:57:58.423Z,19.75
2022-10-24T11:00:40.217Z,19.49
2022-10-24T11:03:23.728Z,19.37
2022-10-24T11:06:11.053Z,19.51
2022-10-24T11:08:54.995Z,19.50
2022-10-24T11:11:37.184Z,19.47
2022-10-24T11:14:18.918Z,19.45
2022-10-24T11:17:04.860Z,19.38
2022-10-24T11:19:58.048Z,19.27
2022-10-24T11:22:41.864Z,19.26
2022-10-24T11:25:24.943Z,19.13
2022-10-24T11:28:05.895Z,19.14
2022-10-24T11:30:48.621Z,19.14
2022-10-24T11:33:31.983Z,19.14
2022-10-24T11:36:14.887Z,19.04
2022-10-24T11:38:56.771Z,19.05
2022-10-24T11:41:39.073Z,19.11
2022-10-24T11:44:27.995Z,19.14
2022-10-24T11:47:32.268Z,18.99
2022-10-24T11:50:14.550Z,19.00
2022-10-24T11:53:13.603Z,18.91
2022-10-24T11:55:55.736Z,18.92
2022-10-24T11:58:36.223Z,18.91
2022-10-24T12:01:20.343Z,18.85
2022-10-24T12:04:14.741Z,18.76
2022-10-24T12:07:04.882Z,18.76
2022-10-24T12:09:47.643Z,18.64
2022-10-24T12:12:33.026Z,18.73
2022-10-24T12:15:19.025Z,18.67
2022-10-24T12:18:04.934Z,18.68
2022-10-24T12:20:47.060Z,19.07
2022-10-24T12:23:31.358Z,19.38
2022-10-24T12:26:19.001Z,19.71
2022-10-24T12:29:01.155Z,19.85
2022-10-24T12:31:41.857Z,20.08
2022-10-24T12:34:48.805Z,20.27
2022-10-24T12:37:34.558Z,20.54
2022-10-24T12:40:32.366Z,20.61
2022-10-24T12:43:17.355Z,20.48
2022-10-24T12:46:00.122Z,20.29
2022-10-24T12:48:39.912Z,20.34
2022-10-24T12:51:28.546Z,20.50
2022-10-24T12:54:18.018Z,20.61
2022-10-24T12:57:15.934Z,20.63
2022-10-24T12:59:56.786Z,20.41
2022-10-24T13:02:50.908Z,20.16
2022-10-24T13:05:37.418Z,19.99
2022-10-24T13:08:21.697Z,19.70
2022-10-24T13:11:07.326Z,19.70
2022-10-24T13:13:57.967Z,19.49
2022-10-24T13:16:39.869Z,19.22
2022-10-24T13:19:22.156Z,19.35
2022-10-24T13:22:02.804Z,19.30
2022-10-24T13:24:43.789Z,19.41
2022-10-24T13:27:30.478Z,19.35
2022-10-24T13:30:33.014Z,19.13
2022-10-24T13:33:31.002Z,19.11
2022-10-24T13:36:16.564Z,18.93
2022-10-24T13:38:58.740Z,18.86
2022-10-24T13:41:40.509Z,18.86
2022-10-24T13:44:36.007Z,18.71
2022-10-24T13:47:18.006Z,18.53
2022-10-24T13:49:58.748Z,18.43
2022-10-24T13:52:40.234Z,18.42
2022-10-24T13:55:24.938Z,18.30
2022-10-24T13:58:11.308Z,18.27
2022-10-24T14:00:54.165Z,18.24
2022-10-24T14:03:34.879Z,18.21
2022-10-24T14:06:15.893Z,18.24
2022-10-24T14:09:05.471Z,18.20
2022-10-24T14:11:48.486Z,18.05
2022-10-24T14:14:30.542Z,18.10
2022-10-24T14:17:22.804Z,18.06
2022-10-24T14:20:20.342Z,18.05
2022-10-24T14:23:03.287Z,18.03
2022-10-24T14:25:44.096Z,17.91
2022-10-24T14:28:26.949Z,18.01
2022-10-24T14:31:09.894Z,17.86
2022-10-24T14:33:51.183Z,17.78
2022-10-24T14:36:44.750Z,17.67
2022-10-24T14:39:26.553Z,17.59
2022-10-24T14:42:08.500Z,17.62
2022-10-24T14:44:49.538Z,17.62
2022-10-24T14:47:31.905Z,17.55
2022-10-24T14:50:36.840Z,17.52
2022-10-24T14:53:24.080Z,17.54
2022-10-24T14:56:05.152Z,17.43
2022-10-24T14:58:48.421Z,17.37
2022-10-24T15:01:31.421Z,17.36
2022-10-24T15:04:28.936Z,17.28
2022-10-24T15:07:20.742Z,17.24
2022-10-24T15:10:19.691Z,17.19
2022-10-24T15:13:03.356Z,17.17
2022-10-24T15:15:48.926Z,17.09
2022-10-24T15:18:29.854Z,17.01
2022-10-24T15:21:14.072Z,16.99
2022-10-24T15:23:55.968Z,16.91
2022-10-24T15:26:39.145Z,16.82
2022-10-24T15:29:21.203Z,16.81
2022-10-24T15:32:14.260Z,16.73
2022-10-24T15:35:06.578Z,16.69
2022-10-24T15:37:54.773Z,16.61
2022-10-24T15:40:35.353Z,16.58
2022-10-24T15:43:16.989Z,16.56
2022-10-24T15:45:58.061Z,16.49
2022-10-24T15:48:39.807Z,16.47
2022-10-24T15:51:21.765Z,16.35
2022-10-24T15:54:02.081Z,16.28
2022-10-24T15:56:42.028Z,16.23
2022-10-24T15:59:26.580Z,16.16
2022-10-24T16:02:22.761Z,16.04
2022-10-24T16:05:04.928Z,16.01
2022-10-24T16:07:46.118Z,15.98
2022-10-24T16:10:29.180Z,15.91
2022-10-24T16:13:10.969Z,15.88
2022-10-24T16:15:51.585Z,15.84
2022-10-24T16:18:33.233Z,15.75
2022-10-24T16:21:14.399Z,15.67
2022-10-24T16:24:12.436Z,15.59
2022-10-24T16:26:52.389Z,15.55
2022-10-24T16:29:32.148Z,15.52
2022-10-24T16:32:12.825Z,15.51
2022-10-24T16:34:57.433Z,15.46
2022-10-24T16:37:38.045Z,15.48
2022-10-24T16:40:17.944Z,15.49
2022-10-24T16:42:59.729Z,15.48
2022-10-24T16:45:40.623Z,15.50
2022-10-24T16:48:20.409Z,15.48
2022-10-24T16:51:00.319Z,15.43
2022-10-24T16:53:42.003Z,15.41
2022-10-24T16:56:25.080Z,15.33
2022-10-24T16:59:06.067Z,15.37
2022-10-24T17:01:45.964Z,15.33
2022-10-24T17:04:32.832Z,15.32
2022-10-24T17:07:17.103Z,15.26
2022-10-24T17:09:58.163Z,15.27
2022-10-24T17:12:39.557Z,15.22
2022-10-24T17:15:21.976Z,15.18
2022-10-24T17:18:04.142Z,15.18
2022-10-24T17:20:46.386Z,15.17
2022-10-24T17:23:27.247Z,15.16
2022-10-24T17:26:13.753Z,15.15
2022-10-24T17:28:54.483Z,15.11
2022-10-24T17:31:35.985Z,15.11
2022-10-24T17:34:19.297Z,15.09
2022-10-24T17:37:01.251Z,15.07
2022-10-24T17:39:45.789Z,15.07
2022-10-24T17:42:26.417Z,15.07
2022-10-24T17:45:10.455Z,15.06
2022-10-24T17:47:50.778Z,14.97
2022-10-24T17:50:31.991Z,14.95
2022-10-24T17:53:13.420Z,14.96
2022-10-24T17:55:55.248Z,14.92
2022-10-24T17:58:36.301Z,14.91
2022-10-24T18:01:29.678Z,14.86
2022-10-24T18:04:10.947Z,14.86
2022-10-24T18:07:04.080Z,14.82
2022-10-24T18:10:00.337Z,14.77
2022-10-24T18:12:42.494Z,14.76
2022-10-24T18:15:36.791Z,14.74
2022-10-24T18:18:18.007Z,14.67
2022-10-24T18:21:07.161Z,14.64
2022-10-24T18:23:47.466Z,14.62
2022-10-24T18:26:30.670Z,14.56
2022-10-24T18:29:11.800Z,14.51
2022-10-24T18:31:53.168Z,14.49
2022-10-24T18:34:34.522Z,14.42
2022-10-24T18:37:15.954Z,14.34
2022-10-24T18:39:57.619Z,14.31
2022-10-24T18:42:42.084Z,14.30
2022-10-24T18:45:24.715Z,14.28
2022-10-24T18:48:06.722Z,14.26
2022-10-24T18:50:48.029Z,14.23
2022-10-24T18:53:29.146Z,14.23
2022-10-24T18:56:11.141Z,14.24
2022-10-24T18:58:57.119Z,14.24
2022-10-24T19:01:40.158Z,14.23
2022-10-24T19:04:41.259Z,14.23
2022-10-24T19:07:33.670Z,14.22
2022-10-24T19:10:19.458Z,14.19
2022-10-24T19:12:57.760Z,14.16
2022-10-24T19:15:38.841Z,14.12
2022-10-24T19:18:21.099Z,14.08
2022-10-24T19:21:04.303Z,14.05
2022-10-24T19:23:45.115Z,13.99
2022-10-24T19:26:24.929Z,13.96
2022-10-24T19:29:05.830Z,13.93
2022-10-24T19:31:46.175Z,13.88
2022-10-24T19:34:29.185Z,13.83
2022-10-24T19:37:09.692Z,13.80
2022-10-24T19:39:50.415Z,13.80
2022-10-24T19:42:32.167Z,13.79
2022-10-24T19:45:13.233Z,13.80
2022-10-24T19:47:55.228Z,13.78
2022-10-24T19:50:38.023Z,13.78
2022-10-24T19:53:21.015Z,13.79
2022-10-24T19:56:05.524Z,13.78
2022-10-24T19:58:46.670Z,13.75
2022-10-24T20:01:27.294Z,13.72
2022-10-24T20:04:06.117Z,13.68
2022-10-24T20:06:48.114Z,13.61
2022-10-24T20:09:29.073Z,13.62
2022-10-24T20:12:10.874Z,13.58
2022-10-24T20:14:51.856Z,13.53
2022-10-24T20:17:33.793Z,13.49
2022-10-24T20:20:14.713Z,13.46
2022-10-24T20:22:54.508Z,13.42
2022-10-24T20:25:47.996Z,13.36
2022-10-24T20:28:29.396Z,13.34
2022-10-24T20:31:17.471Z,13.30
2022-10-24T20:34:03.610Z,13.24
2022-10-24T20:37:01.515Z,13.20
2022-10-24T20:39:42.492Z,13.15
2022-10-24T20:42:22.370Z,13.13
2022-10-24T20:45:03.716Z,13.10
2022-10-24T20:47:43.633Z,13.10
2022-10-24T20:50:44.091Z,13.05
2022-10-24T20:53:22.015Z,13.04
2022-10-24T20:56:07.984Z,12.99
2022-10-24T20:58:48.636Z,12.99
2022-10-24T21:01:31.870Z,13.04
2022-10-24T21:04:14.696Z,13.07
2022-10-24T21:07:05.811Z,13.02
2022-10-24T21:09:46.838Z,13.01
2022-10-24T21:12:28.654Z,13.03
2022-10-24T21:15:23.560Z,12.98
2022-10-24T21:18:05.809Z,12.98
2022-10-24T21:20:45.829Z,12.97
2022-10-24T21:23:27.020Z,12.92
2022-10-24T21:26:07.593Z,12.91
2022-10-24T21:28:48.477Z,13.21
2022-10-24T21:31:32.944Z,12.93
2022-10-24T21:34:12.880Z,12.84
2022-10-24T21:36:52.686Z,12.84
2022-10-24T21:39:34.041Z,12.80
2022-10-24T21:42:15.891Z,12.80
2022-10-24T21:44:56.900Z,12.78
2022-10-24T21:47:38.916Z,12.77
2022-10-24T21:50:21.645Z,12.81
2022-10-24T21:53:04.675Z,12.82
2022-10-24T21:55:45.703Z,12.82
2022-10-24T21:58:25.526Z,12.84
2022-10-24T22:01:14.160Z,12.86
2022-10-24T22:03:52.789Z,12.85
2022-10-24T22:06:33.195Z,12.88
2022-10-24T22:09:15.172Z,12.86
2022-10-24T22:11:57.619Z,12.90
2022-10-24T22:14:38.745Z,12.89
2022-10-24T22:17:18.515Z,12.90
2022-10-24T22:19:58.388Z,12.90
2022-10-24T22:22:40.139Z,12.94
2022-10-24T22:25:23.151Z,12.92
2022-10-24T22:28:04.228Z,12.97
2022-10-24T22:30:46.361Z,13.02
2022-10-24T22:33:28.785Z,13.02
2022-10-24T22:36:11.693Z,13.05
2022-10-24T22:38:54.104Z,13.05
2022-10-24T22:41:34.773Z,13.11
2022-10-24T22:44:20.353Z,13.15
2022-10-24T22:47:06.581Z,13.14
2022-10-24T22:49:50.134Z,13.17
2022-10-24T22:52:33.705Z,13.19
2022-10-24T22:55:16.609Z,13.20
2022-10-24T22:57:57.688Z,13.26
2022-10-24T23:00:39.054Z,13.29
2022-10-24T23:03:24.123Z,13.34
2022-10-24T23:06:06.061Z,13.40
2022-10-24T23:08:46.189Z,13.45
2022-10-24T23:11:27.861Z,13.47
2022-10-24T23:14:09.983Z,13.52
2022-10-24T23:16:52.697Z,13.52
2022-10-24T23:19:33.704Z,13.55
2022-10-24T23:22:18.865Z,13.59
2022-10-24T23:25:00.175Z,13.60
2022-10-24T23:27:43.983Z,13.63
2022-10-24T23:30:25.777Z,13.61
2022-10-24T23:33:10.208Z,13.58
2022-10-24T23:35:51.549Z,13.59
2022-10-24T23:38:35.384Z,13.56
2022-10-24T23:41:16.253Z,13.55
2022-10-24T23:43:57.671Z,13.55
2022-10-24T23:46:42.023Z,13.52
2022-10-24T23:49:25.795Z,13.56
2022-10-24T23:52:09.251Z,13.52
2022-10-24T23:54:49.680Z,13.55
2022-10-24T23:57:31.022Z,13.51
